createdAt,value
2019-03-29T00:00:27.495Z,99491.86
2019-03-29T00:02:58.929Z,99489.92
2019-03-29T00:05:29.633Z,99489.72
2019-03-29T00:08:00.436Z,99482.30
2019-03-29T00:10:31.746Z,99487.38
2019-03-29T00:13:02.480Z,99483.28
2019-03-29T00:15:33.992Z,99483.62
2019-03-29T00:18:04.839Z,99482.79
2019-03-29T00:20:35.618Z,99483.73
2019-03-29T00:23:06.425Z,99481.03
2019-03-29T00:25:37.178Z,99478.92
2019-03-29T00:28:07.912Z,99485.65
2019-03-29T00:30:38.869Z,99482.78
2019-03-29T00:33:09.662Z,99485.58
2019-03-29T00:35:40.408Z,99483.95
2019-03-29T00:38:11.240Z,99490.44
2019-03-29T00:40:42.290Z,99488.50
2019-03-29T00:43:13.047Z,99485.27
2019-03-29T00:45:43.844Z,99484.09
2019-03-29T00:48:14.774Z,99489.64
2019-03-29T00:50:46.477Z,99489.23
2019-03-29T00:53:17.300Z,99488.16
2019-03-29T00:55:48.079Z,99483.65
2019-03-29T00:58:19.221Z,99492.98
2019-03-29T01:00:50.039Z,99492.93
2019-03-29T01:03:20.758Z,99486.48
2019-03-29T01:05:51.484Z,99489.66
2019-03-29T01:08:22.352Z,99491.83
2019-03-29T01:10:53.348Z,99482.93
2019-03-29T01:13:24.222Z,99472.20
2019-03-29T01:15:55.616Z,99474.16
2019-03-29T01:18:26.531Z,99476.88
2019-03-29T01:20:57.534Z,99471.54
2019-03-29T01:23:28.264Z,99472.88
2019-03-29T01:25:59.067Z,99470.62
2019-03-29T01:28:29.808Z,99458.22
2019-03-29T01:31:01.403Z,99462.95
2019-03-29T01:33:32.218Z,99461.93
2019-03-29T01:36:02.930Z,99454.07
2019-03-29T01:38:33.667Z,99458.57
2019-03-29T01:41:04.380Z,99464.36
2019-03-29T01:43:35.292Z,99462.70
2019-03-29T01:46:06.900Z,99468.95
2019-03-29T01:48:37.659Z,99464.63
2019-03-29T01:51:08.362Z,99470.02
2019-03-29T01:53:39.102Z,99466.80
2019-03-29T01:56:10.885Z,99465.17
2019-03-29T01:58:41.601Z,99454.48
2019-03-29T02:01:12.475Z,99464.56
2019-03-29T02:03:43.348Z,99458.48
2019-03-29T02:06:14.120Z,99460.41
2019-03-29T02:08:44.872Z,99457.95
2019-03-29T02:11:15.765Z,99454.54
2019-03-29T02:13:46.498Z,99453.01
2019-03-29T02:16:17.380Z,99454.16
2019-03-29T02:18:48.140Z,99453.17
2019-03-29T02:21:19.215Z,99454.49
2019-03-29T02:23:49.958Z,99451.23
2019-03-29T02:26:20.759Z,99454.95
2019-03-29T02:28:53.914Z,99448.96
2019-03-29T02:31:26.015Z,99450.14
2019-03-29T02:33:57.273Z,99451.42
2019-03-29T02:36:27.975Z,99444.75
2019-03-29T02:38:59.453Z,99449.57
2019-03-29T02:41:30.148Z,99447.69
2019-03-29T02:44:00.982Z,99447.88
2019-03-29T02:46:31.703Z,99452.80
2019-03-29T02:49:02.563Z,99440.04
2019-03-29T02:51:33.270Z,99443.36
2019-03-29T02:54:04.272Z,99448.59
2019-03-29T02:56:35.018Z,99445.88
2019-03-29T02:59:06.127Z,99445.28
2019-03-29T03:01:38.621Z,99447.09
2019-03-29T03:04:09.896Z,99442.03
2019-03-29T03:06:40.649Z,99445.48
2019-03-29T03:09:14.076Z,99439.36
2019-03-29T03:11:44.254Z,99437.08
2019-03-29T03:14:15.900Z,99440.41
2019-03-29T03:16:47.393Z,99432.08
2019-03-29T03:19:18.253Z,99430.98
2019-03-29T03:21:49.004Z,99426.01
2019-03-29T03:24:20.379Z,99427.05
2019-03-29T03:26:51.088Z,99425.23
2019-03-29T03:29:21.846Z,99431.25
2019-03-29T03:31:52.587Z,99432.38
2019-03-29T03:34:23.420Z,99434.14
2019-03-29T03:36:54.158Z,99430.95
2019-03-29T03:39:32.070Z,99437.98
2019-03-29T03:41:57.663Z,99435.75
2019-03-29T03:44:28.422Z,99435.05
2019-03-29T03:46:59.191Z,99428.49
2019-03-29T03:49:30.082Z,99424.99
2019-03-29T03:52:00.901Z,99429.36
2019-03-29T03:54:31.868Z,99424.99
2019-03-29T03:57:03.009Z,99427.85
2019-03-29T03:59:33.973Z,99427.63
2019-03-29T04:02:04.831Z,99428.79
2019-03-29T04:04:37.642Z,99428.63
2019-03-29T04:07:08.124Z,99426.34
2019-03-29T04:09:49.244Z,99426.30
2019-03-29T04:12:11.395Z,99434.70
2019-03-29T04:14:42.157Z,99431.46
2019-03-29T04:17:12.886Z,99429.16
2019-03-29T04:19:44.185Z,99425.57
2019-03-29T04:22:14.995Z,99419.98
2019-03-29T04:24:45.908Z,99419.61
2019-03-29T04:27:16.794Z,99424.67
2019-03-29T04:29:47.552Z,99424.24
2019-03-29T04:32:18.292Z,99425.73
2019-03-29T04:34:49.036Z,99425.34
2019-03-29T04:37:20.205Z,99432.70
2019-03-29T04:40:06.350Z,99429.80
2019-03-29T04:42:23.584Z,99430.82
2019-03-29T04:44:54.344Z,99426.45
2019-03-29T04:47:25.130Z,99419.63
2019-03-29T04:49:56.403Z,99429.61
2019-03-29T04:52:27.241Z,99430.30
2019-03-29T04:54:57.959Z,99432.75
2019-03-29T04:57:28.731Z,99427.91
2019-03-29T04:59:59.586Z,99428.87
2019-03-29T05:02:30.900Z,99432.56
2019-03-29T05:05:01.856Z,99436.55
2019-03-29T05:07:32.621Z,99428.82
2019-03-29T05:10:03.353Z,99431.09
2019-03-29T05:12:34.215Z,99434.76
2019-03-29T05:15:05.128Z,99439.70
2019-03-29T05:17:35.913Z,99433.41
2019-03-29T05:20:07.288Z,99434.64
2019-03-29T05:22:38.065Z,99423.01
2019-03-29T05:25:08.948Z,99430.34
2019-03-29T05:27:39.748Z,99433.42
2019-03-29T05:30:10.776Z,99436.99
2019-03-29T05:32:42.469Z,99425.97
2019-03-29T05:35:13.383Z,99429.69
2019-03-29T05:37:44.142Z,99426.33
2019-03-29T05:40:15.355Z,99426.05
2019-03-29T05:42:46.123Z,99431.47
2019-03-29T05:45:17.761Z,99436.34
2019-03-29T05:47:48.509Z,99435.47
2019-03-29T05:50:19.376Z,99431.84
2019-03-29T05:52:50.639Z,99440.89
2019-03-29T05:55:32.068Z,99440.39
2019-03-29T05:57:54.148Z,99436.20
2019-03-29T06:00:25.061Z,99435.73
2019-03-29T06:02:55.859Z,99433.50
2019-03-29T06:05:26.611Z,99442.37
2019-03-29T06:07:57.404Z,99443.88
2019-03-29T06:10:28.301Z,99447.88
2019-03-29T06:12:59.083Z,99451.27
2019-03-29T06:15:29.885Z,99449.09
2019-03-29T06:18:00.671Z,99445.77
2019-03-29T06:20:31.610Z,99442.93
2019-03-29T06:23:03.070Z,99441.86
2019-03-29T06:25:33.950Z,99437.06
2019-03-29T06:28:04.840Z,99438.59
2019-03-29T06:30:35.740Z,99442.34
2019-03-29T06:33:06.567Z,99439.69
2019-03-29T06:35:40.397Z,99439.57
2019-03-29T06:38:12.303Z,99439.20
2019-03-29T06:40:43.318Z,99436.20
2019-03-29T06:43:14.489Z,99439.08
2019-03-29T06:45:48.122Z,99440.70
2019-03-29T06:48:17.999Z,99438.18
2019-03-29T06:50:49.010Z,99435.77
2019-03-29T06:53:19.839Z,99440.20
2019-03-29T06:55:50.642Z,99438.88
2019-03-29T06:58:21.362Z,99439.38
2019-03-29T07:00:52.345Z,99440.98
2019-03-29T07:03:23.098Z,99434.03
2019-03-29T07:05:53.943Z,99437.87
2019-03-29T07:08:24.650Z,99432.94
2019-03-29T07:10:55.390Z,99430.66
2019-03-29T07:13:26.118Z,99429.84
2019-03-29T07:15:57.144Z,99422.75
2019-03-29T07:18:27.863Z,99415.31
2019-03-29T07:20:58.638Z,99418.24
2019-03-29T07:23:29.490Z,99409.97
2019-03-29T07:26:00.239Z,99415.06
2019-03-29T07:28:30.994Z,99417.09
2019-03-29T07:31:01.762Z,99415.48
2019-03-29T07:33:32.496Z,99413.62
2019-03-29T07:36:03.276Z,99417.27
2019-03-29T07:38:34.002Z,99427.86
2019-03-29T07:41:04.729Z,99417.88
2019-03-29T07:43:35.480Z,99414.36
2019-03-29T07:46:06.195Z,99422.14
2019-03-29T07:48:40.330Z,99417.67
2019-03-29T07:51:09.843Z,99420.85
2019-03-29T07:53:40.641Z,99415.92
2019-03-29T07:56:11.387Z,99417.19
2019-03-29T07:58:42.125Z,99414.42
2019-03-29T08:01:13.035Z,99414.75
2019-03-29T08:03:43.782Z,99408.89
2019-03-29T08:06:14.522Z,99410.53
2019-03-29T08:08:45.251Z,99399.64
2019-03-29T08:11:26.087Z,99413.59
2019-03-29T08:13:48.446Z,99410.94
2019-03-29T08:16:19.363Z,99404.69
2019-03-29T08:18:50.137Z,99399.49
2019-03-29T08:21:20.939Z,99400.18
2019-03-29T08:23:51.668Z,99400.86
2019-03-29T08:26:22.460Z,99396.50
2019-03-29T08:28:53.173Z,99393.20
2019-03-29T08:31:23.912Z,99394.80
2019-03-29T08:33:54.653Z,99388.19
2019-03-29T08:36:25.506Z,99400.50
2019-03-29T08:38:56.445Z,99402.94
2019-03-29T08:41:27.298Z,99395.30
2019-03-29T08:43:58.275Z,99403.27
2019-03-29T08:46:29.043Z,99399.27
2019-03-29T08:48:59.765Z,99389.01
2019-03-29T08:51:31.252Z,99402.10
2019-03-29T08:54:02.115Z,99398.88
2019-03-29T08:56:32.931Z,99398.42
2019-03-29T08:59:03.997Z,99401.98
2019-03-29T09:01:35.008Z,99402.42
2019-03-29T09:04:06.265Z,99393.72
2019-03-29T09:06:37.111Z,99395.61
2019-03-29T09:09:11.888Z,99392.61
2019-03-29T09:11:41.671Z,99382.38
2019-03-29T09:14:12.390Z,99383.43
2019-03-29T09:16:43.141Z,99391.72
2019-03-29T09:19:14.136Z,99374.95
2019-03-29T09:21:44.882Z,99377.73
2019-03-29T09:24:21.823Z,99373.66
2019-03-29T09:26:48.104Z,99373.72
2019-03-29T09:29:18.970Z,99366.63
2019-03-29T09:31:49.840Z,99364.69
2019-03-29T09:34:20.609Z,99365.62
2019-03-29T09:36:51.368Z,99362.70
2019-03-29T09:39:22.095Z,99356.01
2019-03-29T09:41:52.917Z,99354.89
2019-03-29T09:44:23.618Z,99348.38
2019-03-29T09:46:54.896Z,99349.13
2019-03-29T09:49:25.698Z,99349.61
2019-03-29T09:51:56.455Z,99346.91
2019-03-29T09:54:27.175Z,99337.72
2019-03-29T09:56:57.934Z,99336.41
2019-03-29T09:59:28.676Z,99336.59
2019-03-29T10:01:59.484Z,99331.30
2019-03-29T10:04:30.261Z,99336.42
2019-03-29T10:07:01.103Z,99325.98
2019-03-29T10:09:31.858Z,99315.66
2019-03-29T10:12:02.766Z,99317.25
2019-03-29T10:14:33.774Z,99324.84
2019-03-29T10:17:04.581Z,99308.91
2019-03-29T10:19:35.301Z,99315.78
2019-03-29T10:22:06.259Z,99310.84
2019-03-29T10:24:36.967Z,99312.59
2019-03-29T10:27:07.792Z,99308.36
2019-03-29T10:29:38.507Z,99307.01
2019-03-29T10:32:10.098Z,99302.10
2019-03-29T10:34:40.799Z,99304.50
2019-03-29T10:37:11.666Z,99291.80
2019-03-29T10:39:42.416Z,99295.50
2019-03-29T10:42:13.436Z,99292.09
2019-03-29T10:44:44.228Z,99299.27
2019-03-29T10:47:15.144Z,99288.72
2019-03-29T10:49:45.982Z,99296.70
2019-03-29T10:52:16.817Z,99287.75
2019-03-29T10:54:49.885Z,99289.56
2019-03-29T10:57:20.036Z,99285.88
2019-03-29T10:59:50.756Z,99284.57
2019-03-29T11:02:21.492Z,99285.31
2019-03-29T11:04:52.223Z,99282.71
2019-03-29T11:07:23.287Z,99279.48
2019-03-29T11:09:54.026Z,99276.77
2019-03-29T11:12:24.830Z,99279.83
2019-03-29T11:14:55.588Z,99280.71
2019-03-29T11:17:26.452Z,99285.27
2019-03-29T11:19:57.176Z,99282.44
2019-03-29T11:22:27.989Z,99281.56
2019-03-29T11:24:58.764Z,99280.91
2019-03-29T11:27:29.684Z,99277.00
2019-03-29T11:30:00.429Z,99275.33
2019-03-29T11:32:31.259Z,99269.94
2019-03-29T11:35:01.996Z,99277.73
2019-03-29T11:37:32.778Z,99277.98
2019-03-29T11:40:03.507Z,99277.88
2019-03-29T11:42:34.984Z,99273.63
2019-03-29T11:45:06.522Z,99260.69
2019-03-29T11:47:37.365Z,99266.76
2019-03-29T11:50:08.700Z,99272.06
2019-03-29T11:52:39.800Z,99267.06
2019-03-29T11:55:10.608Z,99265.74
2019-03-29T11:57:41.494Z,99259.23
2019-03-29T12:00:13.841Z,99255.86
2019-03-29T12:02:44.725Z,99252.01
2019-03-29T12:05:15.623Z,99245.48
2019-03-29T12:07:46.361Z,99249.20
2019-03-29T12:10:17.538Z,99232.84
2019-03-29T12:12:48.304Z,99236.66
2019-03-29T12:15:19.189Z,99237.23
2019-03-29T12:17:50.033Z,99234.68
2019-03-29T12:20:21.088Z,99227.88
2019-03-29T12:22:51.853Z,99227.84
2019-03-29T12:25:22.571Z,99219.78
2019-03-29T12:27:53.336Z,99219.60
2019-03-29T12:30:31.843Z,99214.00
2019-03-29T12:32:57.057Z,99224.13
2019-03-29T12:35:27.788Z,99218.16
2019-03-29T12:37:58.619Z,99210.80
2019-03-29T12:40:30.050Z,99213.00
2019-03-29T12:43:01.508Z,99210.11
2019-03-29T12:45:32.735Z,99202.96
2019-03-29T12:48:03.565Z,99205.09
2019-03-29T12:50:34.318Z,99198.50
2019-03-29T12:53:05.150Z,99191.74
2019-03-29T12:55:36.187Z,99179.47
2019-03-29T12:58:07.153Z,99177.83
2019-03-29T13:00:38.077Z,99189.33
2019-03-29T13:03:09.225Z,99176.08
2019-03-29T13:05:39.997Z,99180.28
2019-03-29T13:08:10.813Z,99176.66
2019-03-29T13:10:42.695Z,99181.51
2019-03-29T13:13:13.935Z,99175.48
2019-03-29T13:15:45.038Z,99179.34
2019-03-29T13:18:15.765Z,99176.97
2019-03-29T13:20:46.571Z,99168.13
2019-03-29T13:23:17.310Z,99168.30
2019-03-29T13:25:48.170Z,99172.20
2019-03-29T13:28:18.945Z,99164.55
2019-03-29T13:30:49.705Z,99159.52
2019-03-29T13:33:20.895Z,99159.36
2019-03-29T13:35:51.882Z,99156.17
2019-03-29T13:38:22.675Z,99146.80
2019-03-29T13:40:53.702Z,99143.23
2019-03-29T13:43:24.452Z,99147.27
2019-03-29T13:45:55.319Z,99141.77
2019-03-29T13:48:26.050Z,99149.05
2019-03-29T13:50:59.489Z,99141.03
2019-03-29T13:53:29.355Z,99146.09
2019-03-29T13:56:00.203Z,99136.29
2019-03-29T13:58:31.040Z,99130.27
2019-03-29T14:01:03.262Z,99126.01
2019-03-29T14:03:43.033Z,99129.56
2019-03-29T14:06:18.209Z,99122.66
2019-03-29T14:08:50.603Z,99122.83
2019-03-29T14:11:25.650Z,99123.67
2019-03-29T14:13:56.744Z,99113.62
2019-03-29T14:16:33.320Z,99111.84
2019-03-29T14:19:06.473Z,99112.62
2019-03-29T14:21:37.228Z,99102.11
2019-03-29T14:24:08.046Z,99102.97
2019-03-29T14:26:38.820Z,99097.17
2019-03-29T14:29:09.757Z,99098.23
2019-03-29T14:31:40.663Z,99093.86
2019-03-29T14:34:11.449Z,99086.41
2019-03-29T14:36:42.232Z,99088.82
2019-03-29T14:39:12.988Z,99086.08
2019-03-29T14:41:43.827Z,99076.63
2019-03-29T14:44:14.594Z,99071.98
2019-03-29T14:46:45.463Z,99068.30
2019-03-29T14:49:16.175Z,99062.59
2019-03-29T14:51:47.031Z,99055.37
2019-03-29T14:54:17.836Z,99057.23
2019-03-29T14:56:48.651Z,99062.07
2019-03-29T14:59:19.355Z,99053.55
2019-03-29T15:01:50.155Z,99052.84
2019-03-29T15:04:21.399Z,99047.41
2019-03-29T15:06:52.251Z,99046.20
2019-03-29T15:09:23.400Z,99050.57
2019-03-29T15:11:54.149Z,99050.75
2019-03-29T15:14:25.481Z,99048.83
2019-03-29T15:16:56.260Z,99042.41
2019-03-29T15:19:27.097Z,99036.37
2019-03-29T15:21:57.870Z,99034.02
2019-03-29T15:24:28.705Z,99035.03
2019-03-29T15:26:59.449Z,99030.71
2019-03-29T15:29:30.209Z,99020.24
2019-03-29T15:32:01.036Z,99011.20
2019-03-29T15:34:31.774Z,99021.31
2019-03-29T15:37:02.819Z,99017.20
2019-03-29T15:39:33.553Z,99021.41
2019-03-29T15:42:04.326Z,99016.53
2019-03-29T15:44:35.061Z,99014.04
2019-03-29T15:47:05.968Z,99012.58
2019-03-29T15:49:37.312Z,99017.91
2019-03-29T15:52:08.802Z,99008.81
2019-03-29T15:54:39.522Z,99010.77
2019-03-29T15:57:10.354Z,99009.61
2019-03-29T15:59:41.923Z,99008.09
2019-03-29T16:02:13.604Z,99009.01
2019-03-29T16:04:44.347Z,98997.98
2019-03-29T16:07:15.770Z,98999.69
2019-03-29T16:09:46.575Z,98997.28
2019-03-29T16:12:18.191Z,98998.70
2019-03-29T16:14:48.980Z,98994.97
2019-03-29T16:17:20.465Z,98996.95
2019-03-29T16:19:51.298Z,98998.83
2019-03-29T16:22:23.125Z,98990.52
2019-03-29T16:24:54.750Z,98993.52
2019-03-29T16:27:25.670Z,98994.64
2019-03-29T16:29:57.036Z,98995.21
2019-03-29T16:32:27.830Z,98986.11
2019-03-29T16:34:58.568Z,98981.80
2019-03-29T16:37:29.317Z,98978.93
2019-03-29T16:40:00.043Z,98981.38
2019-03-29T16:42:31.547Z,98986.92
2019-03-29T16:45:02.289Z,98981.50
2019-03-29T16:47:33.877Z,98989.12
2019-03-29T16:50:05.326Z,98996.13
2019-03-29T16:52:36.283Z,98996.21
2019-03-29T16:55:13.550Z,98993.73
2019-03-29T16:57:39.979Z,98988.77
2019-03-29T17:00:12.588Z,98989.73
2019-03-29T17:02:43.756Z,98990.13
2019-03-29T17:05:14.778Z,98992.34
2019-03-29T17:07:45.761Z,98996.33
2019-03-29T17:10:17.589Z,98992.14
2019-03-29T17:12:48.428Z,98987.98
2019-03-29T17:15:19.263Z,98990.16
2019-03-29T17:17:49.994Z,98991.61
2019-03-29T17:20:20.805Z,98992.45
2019-03-29T17:22:51.713Z,98996.99
2019-03-29T17:25:22.542Z,98997.23
2019-03-29T17:27:53.354Z,98993.44
2019-03-29T17:30:41.570Z,98991.46
2019-03-29T17:33:12.747Z,98990.36
2019-03-29T17:35:43.549Z,98991.30
2019-03-29T17:38:14.366Z,98991.09
2019-03-29T17:40:45.088Z,98993.94
2019-03-29T17:43:16.136Z,98989.95
2019-03-29T17:45:47.234Z,98985.64
2019-03-29T17:48:17.993Z,98987.27
2019-03-29T17:50:48.850Z,98987.98
2019-03-29T17:53:20.284Z,98992.66
2019-03-29T17:55:51.028Z,98990.02
2019-03-29T17:58:21.752Z,98988.97
2019-03-29T18:00:52.573Z,98992.58
2019-03-29T18:03:23.281Z,98992.05
2019-03-29T18:05:54.056Z,99003.10
2019-03-29T18:08:24.775Z,99001.89
2019-03-29T18:10:55.742Z,99000.52
2019-03-29T18:13:26.463Z,99002.64
2019-03-29T18:15:57.363Z,98999.21
2019-03-29T18:18:28.106Z,99000.08
2019-03-29T18:20:59.022Z,99001.02
2019-03-29T18:23:30.123Z,99004.45
2019-03-29T18:26:01.095Z,99004.83
2019-03-29T18:28:32.182Z,99008.31
2019-03-29T18:31:03.011Z,99007.55
2019-03-29T18:33:33.965Z,99002.57
2019-03-29T18:36:06.182Z,99007.94
2019-03-29T18:38:38.747Z,99010.11
2019-03-29T18:41:09.614Z,99011.34
2019-03-29T18:43:40.339Z,99012.85
2019-03-29T18:46:11.117Z,99017.59
2019-03-29T18:48:41.820Z,99013.72
2019-03-29T18:51:12.887Z,99015.63
2019-03-29T18:53:43.699Z,99018.72
2019-03-29T18:56:14.715Z,99019.23
2019-03-29T18:58:45.443Z,99018.14
2019-03-29T19:01:16.499Z,99018.45
2019-03-29T19:03:47.647Z,99023.36
2019-03-29T19:06:18.504Z,99022.61
2019-03-29T19:08:49.251Z,99021.08
2019-03-29T19:11:20.093Z,99016.95
2019-03-29T19:13:50.811Z,99016.29
2019-03-29T19:16:21.625Z,99016.29
2019-03-29T19:18:52.349Z,99012.18
2019-03-29T19:21:25.687Z,99009.05
2019-03-29T19:23:55.550Z,99011.94
2019-03-29T19:26:26.293Z,99014.50
2019-03-29T19:28:57.029Z,99011.63
2019-03-29T19:31:27.775Z,99010.50
2019-03-29T19:33:58.577Z,99016.09
2019-03-29T19:36:29.438Z,99015.48
2019-03-29T19:39:00.151Z,99016.42
2019-03-29T19:41:31.301Z,99020.38
2019-03-29T19:44:02.337Z,99013.56
2019-03-29T19:46:33.120Z,99017.37
2019-03-29T19:49:03.832Z,99017.05
2019-03-29T19:51:34.679Z,99013.56
2019-03-29T19:54:07.698Z,99007.99
2019-03-29T19:56:38.151Z,99015.91
2019-03-29T19:59:08.912Z,99015.76
2019-03-29T20:01:39.703Z,99015.23
2019-03-29T20:04:10.543Z,99009.98
2019-03-29T20:06:41.341Z,99015.05
2019-03-29T20:09:12.484Z,99012.52
2019-03-29T20:11:43.297Z,99012.22
2019-03-29T20:14:14.388Z,99012.20
2019-03-29T20:16:45.143Z,99019.31
2019-03-29T20:19:15.922Z,99020.73
2019-03-29T20:21:47.441Z,99026.09
2019-03-29T20:24:18.158Z,99022.59
2019-03-29T20:26:49.635Z,99017.16
2019-03-29T20:29:20.448Z,99021.28
2019-03-29T20:31:51.218Z,99021.06
2019-03-29T20:34:21.941Z,99016.75
2019-03-29T20:36:53.366Z,99021.31
2019-03-29T20:39:24.431Z,99017.73
2019-03-29T20:41:57.528Z,99019.48
2019-03-29T20:44:28.378Z,99022.68
2019-03-29T20:46:59.132Z,99016.34
2019-03-29T20:49:29.841Z,99025.47
2019-03-29T20:52:00.756Z,99031.14
2019-03-29T20:54:31.522Z,99029.08
2019-03-29T20:57:02.608Z,99026.67
2019-03-29T20:59:33.645Z,99022.05
2019-03-29T21:02:04.604Z,99023.44
2019-03-29T21:04:35.734Z,99013.02
2019-03-29T21:07:06.511Z,99016.05
2019-03-29T21:09:38.537Z,99018.63
2019-03-29T21:12:09.634Z,99012.59
2019-03-29T21:14:40.712Z,99007.80
2019-03-29T21:17:11.470Z,99006.23
2019-03-29T21:19:42.167Z,99002.72
2019-03-29T21:22:13.057Z,98997.49
2019-03-29T21:24:43.786Z,99005.45
2019-03-29T21:27:14.527Z,99000.66
2019-03-29T21:29:45.270Z,99003.66
2019-03-29T21:32:16.131Z,99004.28
2019-03-29T21:34:46.947Z,98997.76
2019-03-29T21:37:17.688Z,98996.08
2019-03-29T21:39:48.476Z,98989.52
2019-03-29T21:42:19.255Z,98984.76
2019-03-29T21:44:49.983Z,98988.56
2019-03-29T21:47:20.842Z,98990.70
2019-03-29T21:49:51.918Z,98986.20
2019-03-29T21:52:22.626Z,98989.17
2019-03-29T21:54:53.815Z,98985.13
2019-03-29T21:57:24.580Z,98984.38
2019-03-29T21:59:55.284Z,98981.05
2019-03-29T22:02:26.024Z,98986.70
2019-03-29T22:04:56.756Z,98981.86
2019-03-29T22:07:27.487Z,98983.19
2019-03-29T22:09:58.199Z,98981.53
2019-03-29T22:12:28.958Z,98981.72
2019-03-29T22:14:59.740Z,98985.77
2019-03-29T22:17:30.485Z,98982.25
2019-03-29T22:20:01.220Z,98978.30
2019-03-29T22:22:32.079Z,98976.73
2019-03-29T22:25:03.341Z,98979.45
2019-03-29T22:27:34.732Z,98982.88
2019-03-29T22:30:07.972Z,98977.20
2019-03-29T22:32:39.435Z,98970.19
2019-03-29T22:35:10.547Z,98961.08
2019-03-29T22:37:41.441Z,98968.97
2019-03-29T22:40:13.237Z,98966.70
2019-03-29T22:42:44.106Z,98956.41
2019-03-29T22:45:15.016Z,98958.73
2019-03-29T22:47:45.765Z,98962.23
2019-03-29T22:50:17.309Z,98968.09
2019-03-29T22:52:48.148Z,98961.36
2019-03-29T22:55:19.296Z,98967.59
2019-03-29T22:57:50.087Z,98963.13
2019-03-29T23:00:31.897Z,98966.83
2019-03-29T23:03:02.738Z,98969.94
2019-03-29T23:05:33.567Z,98969.70
2019-03-29T23:08:04.468Z,98967.55
2019-03-29T23:10:35.180Z,98968.06
2019-03-29T23:13:06.075Z,98971.67
2019-03-29T23:15:36.886Z,98967.20
2019-03-29T23:18:08.407Z,98968.86
2019-03-29T23:20:39.227Z,98963.26
2019-03-29T23:23:09.973Z,98961.03
2019-03-29T23:25:41.217Z,98953.79
2019-03-29T23:28:12.146Z,98952.74
2019-03-29T23:30:42.836Z,98959.05
2019-03-29T23:33:13.590Z,98959.64
2019-03-29T23:35:44.350Z,98957.52
2019-03-29T23:38:15.171Z,98951.42
2019-03-29T23:40:45.874Z,98967.23
2019-03-29T23:43:16.622Z,98960.53
2019-03-29T23:45:47.421Z,98957.75
2019-03-29T23:48:18.422Z,98957.48
2019-03-29T23:50:49.146Z,98957.66
2019-03-29T23:53:19.931Z,98955.69
2019-03-29T23:55:50.657Z,98952.84
2019-03-29T23:58:21.564Z,98954.42
